createdAt,value
2022-10-11T00:00:33.206Z,14.33
2022-10-11T00:05:55.069Z,14.38
2022-10-11T00:11:16.782Z,14.26
2022-10-11T00:16:40.916Z,14.21
2022-10-11T00:22:02.694Z,14.21
2022-10-11T00:27:24.787Z,14.13
2022-10-11T00:32:46.570Z,14.02
2022-10-11T00:38:08.298Z,13.98
2022-10-11T00:43:31.320Z,14.11
2022-10-11T00:49:41.003Z,13.97
2022-10-11T00:55:12.622Z,13.92
2022-10-11T01:00:34.460Z,13.90
2022-10-11T01:05:56.796Z,13.72
2022-10-11T01:11:23.435Z,13.79
2022-10-11T01:17:00.040Z,13.94
2022-10-11T01:22:40.558Z,13.77
2022-10-11T01:28:16.371Z,13.85
2022-10-11T01:33:51.845Z,13.99
2022-10-11T01:39:21.936Z,14.00
2022-10-11T01:44:47.420Z,14.02
2022-10-11T01:50:46.371Z,13.96
2022-10-11T01:56:39.714Z,13.87
2022-10-11T02:02:19.452Z,13.82
2022-10-11T02:08:14.932Z,13.81
2022-10-11T02:14:01.669Z,13.82
2022-10-11T02:19:30.151Z,13.86
2022-10-11T02:24:57.718Z,13.89
2022-10-11T02:30:19.505Z,13.86
2022-10-11T02:35:46.719Z,13.91
2022-10-11T02:41:32.449Z,13.87
2022-10-11T02:46:54.817Z,13.97
2022-10-11T02:52:16.518Z,13.92
2022-10-11T02:57:38.215Z,13.87
2022-10-11T03:02:59.917Z,13.99
2022-10-11T03:08:21.647Z,14.02
2022-10-11T03:13:43.381Z,14.00
2022-10-11T03:19:05.076Z,13.96
2022-10-11T03:24:26.840Z,14.02
2022-10-11T03:29:48.553Z,14.06
2022-10-11T03:35:10.264Z,14.02
2022-10-11T03:40:32.139Z,14.11
2022-10-11T03:45:53.882Z,14.07
2022-10-11T03:51:15.744Z,14.12
2022-10-11T03:56:37.602Z,14.06
2022-10-11T04:01:59.400Z,14.07
2022-10-11T04:07:21.138Z,13.91
2022-10-11T04:12:43.099Z,13.92
2022-10-11T04:18:06.379Z,13.99
2022-10-11T04:23:28.119Z,13.94
2022-10-11T04:28:49.916Z,13.99
2022-10-11T04:34:11.816Z,14.00
2022-10-11T04:39:33.495Z,13.94
2022-10-11T04:44:55.187Z,13.94
2022-10-11T04:50:17.003Z,13.85
2022-10-11T04:55:38.700Z,13.83
2022-10-11T05:01:00.660Z,13.94
2022-10-11T05:06:22.352Z,13.92
2022-10-11T05:11:44.042Z,13.91
2022-10-11T05:17:05.787Z,13.93
2022-10-11T05:22:27.500Z,13.93
2022-10-11T05:27:49.178Z,13.96
2022-10-11T05:33:11.821Z,13.96
2022-10-11T05:38:33.850Z,13.88
2022-10-11T05:43:55.598Z,13.90
2022-10-11T05:49:17.355Z,13.92
2022-10-11T05:54:39.143Z,14.00
2022-10-11T06:00:00.831Z,14.06
2022-10-11T06:05:22.543Z,14.10
2022-10-11T06:10:44.764Z,14.07
2022-10-11T06:16:07.548Z,14.13
2022-10-11T06:21:29.706Z,14.06
2022-10-11T06:26:51.821Z,14.10
2022-10-11T06:32:13.597Z,14.09
2022-10-11T06:37:35.325Z,14.00
2022-10-11T06:42:57.037Z,13.87
2022-10-11T06:48:18.733Z,13.89
2022-10-11T06:53:41.527Z,13.90
2022-10-11T06:59:21.276Z,13.88
2022-10-11T07:04:43.016Z,14.00
2022-10-11T07:10:05.105Z,13.96
2022-10-11T07:15:26.880Z,14.01
2022-10-11T07:20:48.826Z,14.07
2022-10-11T07:26:11.034Z,14.08
2022-10-11T07:31:32.885Z,14.07
2022-10-11T07:36:54.580Z,14.03
2022-10-11T07:42:16.299Z,14.02
2022-10-11T07:47:38.105Z,13.97
2022-10-11T07:52:59.903Z,14.04
2022-10-11T07:58:21.588Z,14.07
2022-10-11T08:03:43.314Z,14.13
2022-10-11T08:09:06.200Z,14.17
2022-10-11T08:14:27.989Z,14.20
2022-10-11T08:19:49.845Z,14.12
2022-10-11T08:25:11.536Z,14.18
2022-10-11T08:30:34.035Z,14.25
2022-10-11T08:35:57.196Z,14.30
2022-10-11T08:41:31.687Z,14.27
2022-10-11T08:47:01.762Z,14.22
2022-10-11T08:52:28.196Z,14.28
2022-10-11T08:57:54.971Z,14.33
2022-10-11T09:03:35.493Z,14.31
2022-10-11T09:09:15.655Z,14.30
2022-10-11T09:14:52.076Z,14.26
2022-10-11T09:20:31.092Z,14.28
2022-10-11T09:26:20.070Z,14.22
2022-10-11T09:31:47.437Z,14.24
2022-10-11T09:37:22.570Z,14.24
2022-10-11T09:42:44.285Z,14.25
2022-10-11T09:48:07.341Z,14.21
2022-10-11T09:54:01.532Z,14.25
2022-10-11T09:59:35.042Z,14.30
2022-10-11T10:05:09.017Z,14.43
2022-10-11T10:10:34.077Z,14.49
2022-10-11T10:16:00.805Z,14.46
2022-10-11T10:21:27.720Z,14.38
2022-10-11T10:27:29.636Z,14.45
2022-10-11T10:32:51.499Z,14.40
2022-10-11T10:38:26.879Z,14.47
2022-10-11T10:43:53.562Z,14.50
2022-10-11T10:49:53.078Z,14.49
2022-10-11T10:55:43.099Z,14.58
2022-10-11T11:01:20.831Z,14.65
2022-10-11T11:06:53.626Z,14.65
2022-10-11T11:12:36.567Z,14.72
2022-10-11T11:18:13.551Z,14.67
2022-10-11T11:24:04.044Z,14.68
2022-10-11T11:29:55.361Z,14.77
2022-10-11T11:35:37.684Z,14.77
2022-10-11T11:41:06.095Z,14.73
2022-10-11T11:46:38.190Z,14.74
2022-10-11T11:52:00.493Z,14.72
2022-10-11T11:57:34.900Z,14.78
2022-10-11T12:03:11.277Z,14.79
2022-10-11T12:08:34.916Z,14.86
2022-10-11T12:13:57.656Z,14.82
2022-10-11T12:19:20.183Z,14.81
2022-10-11T12:25:00.296Z,14.83
2022-10-11T12:30:52.369Z,14.78
2022-10-11T12:36:31.836Z,14.77
2022-10-11T12:42:07.233Z,14.79
2022-10-11T12:47:37.173Z,14.78
2022-10-11T12:53:27.843Z,14.76
2022-10-11T12:58:49.910Z,14.75
2022-10-11T13:04:12.361Z,14.79
2022-10-11T13:09:39.241Z,14.84
2022-10-11T13:15:08.433Z,14.85
2022-10-11T13:20:36.263Z,14.90
2022-10-11T13:26:01.928Z,14.90
2022-10-11T13:31:25.216Z,14.95
2022-10-11T13:36:46.917Z,15.01
2022-10-11T13:42:14.126Z,15.04
2022-10-11T13:47:35.893Z,15.13
2022-10-11T13:53:00.447Z,15.13
2022-10-11T13:58:32.115Z,15.15
2022-10-11T14:03:58.990Z,15.11
2022-10-11T14:09:26.359Z,15.06
2022-10-11T14:14:51.604Z,15.07
2022-10-11T14:20:30.854Z,15.13
2022-10-11T14:25:54.762Z,15.08
2022-10-11T14:31:16.521Z,15.05
2022-10-11T14:36:38.280Z,15.03
2022-10-11T14:42:00.188Z,15.02
2022-10-11T14:47:21.910Z,14.98
2022-10-11T14:52:43.949Z,15.01
2022-10-11T14:58:06.999Z,14.99
2022-10-11T15:03:28.702Z,15.02
2022-10-11T15:08:50.516Z,15.02
2022-10-11T15:14:12.376Z,14.98
2022-10-11T15:19:34.163Z,14.99
2022-10-11T15:24:56.046Z,14.98
2022-10-11T15:30:24.316Z,15.06
2022-10-11T15:35:46.008Z,15.02
2022-10-11T15:41:10.146Z,15.02
2022-10-11T15:46:31.838Z,15.11
2022-10-11T15:51:53.618Z,15.06
2022-10-11T15:57:15.329Z,15.10
2022-10-11T16:02:37.068Z,15.07
2022-10-11T16:07:58.978Z,14.98
2022-10-11T16:13:21.196Z,14.85
2022-10-11T16:18:42.942Z,14.76
2022-10-11T16:24:04.805Z,14.77
2022-10-11T16:29:26.651Z,14.71
2022-10-11T16:34:48.468Z,14.68
2022-10-11T16:40:11.906Z,14.60
2022-10-11T16:45:34.219Z,14.68
2022-10-11T16:51:05.041Z,14.65
2022-10-11T16:56:27.568Z,14.62
2022-10-11T17:01:49.495Z,14.65
2022-10-11T17:07:13.012Z,14.60
2022-10-11T17:12:37.153Z,14.56
2022-10-11T17:17:58.914Z,14.59
2022-10-11T17:23:20.596Z,14.46
2022-10-11T17:28:42.383Z,14.51
2022-10-11T17:34:04.187Z,14.57
2022-10-11T17:39:25.949Z,14.55
2022-10-11T17:44:47.672Z,14.59
2022-10-11T17:50:09.622Z,14.50
2022-10-11T17:55:31.326Z,14.41
2022-10-11T18:00:53.140Z,14.18
2022-10-11T18:06:14.909Z,14.02
2022-10-11T18:11:36.787Z,14.10
2022-10-11T18:16:58.509Z,14.13
2022-10-11T18:22:20.839Z,14.23
2022-10-11T18:27:42.644Z,14.18
2022-10-11T18:33:04.497Z,14.18
2022-10-11T18:38:26.212Z,14.13
2022-10-11T18:43:55.772Z,14.20
2022-10-11T18:49:17.636Z,14.13
2022-10-11T18:54:39.465Z,14.24
2022-10-11T19:00:07.275Z,14.18
2022-10-11T19:05:33.665Z,14.13
2022-10-11T19:10:55.550Z,14.21
2022-10-11T19:16:18.000Z,14.11
2022-10-11T19:21:39.875Z,14.20
2022-10-11T19:27:03.057Z,14.20
2022-10-11T19:32:24.949Z,14.17
2022-10-11T19:37:46.701Z,14.19
2022-10-11T19:43:08.441Z,14.22
2022-10-11T19:48:31.108Z,14.19
2022-10-11T19:54:00.130Z,14.19
2022-10-11T19:59:21.977Z,14.18
2022-10-11T20:04:52.817Z,14.16
2022-10-11T20:10:15.059Z,14.13
2022-10-11T20:15:40.090Z,13.95
2022-10-11T20:21:05.894Z,13.82
2022-10-11T20:26:29.425Z,13.96
2022-10-11T20:31:51.318Z,13.98
2022-10-11T20:37:13.026Z,14.03
2022-10-11T20:42:34.869Z,14.00
2022-10-11T20:47:56.614Z,14.06
2022-10-11T20:53:18.740Z,14.06
2022-10-11T20:58:40.924Z,13.90
2022-10-11T21:04:03.522Z,13.87
2022-10-11T21:09:25.323Z,13.80
2022-10-11T21:14:47.081Z,13.97
2022-10-11T21:20:09.301Z,14.03
2022-10-11T21:25:33.258Z,14.05
2022-10-11T21:30:55.255Z,14.10
2022-10-11T21:36:19.976Z,14.07
2022-10-11T21:41:42.318Z,14.08
2022-10-11T21:47:07.420Z,14.06
2022-10-11T21:52:30.883Z,14.06
2022-10-11T21:57:52.626Z,14.04
2022-10-11T22:03:14.414Z,13.99
2022-10-11T22:08:36.544Z,13.90
2022-10-11T22:13:58.652Z,13.80
2022-10-11T22:19:20.472Z,13.80
2022-10-11T22:24:42.152Z,13.86
2022-10-11T22:30:04.197Z,13.88
2022-10-11T22:35:25.871Z,13.81
2022-10-11T22:40:48.221Z,13.63
2022-10-11T22:46:10.357Z,13.69
2022-10-11T22:51:32.154Z,13.78
2022-10-11T22:56:53.847Z,13.84
2022-10-11T23:02:15.569Z,13.80
2022-10-11T23:07:37.629Z,13.75
2022-10-11T23:12:59.623Z,13.60
2022-10-11T23:18:21.286Z,13.66
2022-10-11T23:23:42.979Z,13.64
2022-10-11T23:29:04.676Z,13.44
2022-10-11T23:34:26.380Z,13.33
2022-10-11T23:39:48.083Z,13.23
2022-10-11T23:45:10.161Z,13.27
2022-10-11T23:50:31.844Z,13.26
2022-10-11T23:55:53.697Z,13.22
